Terminal Aerodrome Forecast
Issued by NWS

Home | Current Version | Previous Version | Graphics & Text | Print | Product List | Glossary On
Versions: 1 2 3 4 5 6 7 8 9 10 11 12 13 14
000
FTUS43 KBIS 211100
TAFMOT
TAF
KMOT 211137Z 2112/2212 20012KT P6SM SCT100 BKN150
     FM211700 23015KT P6SM SCT150
     FM220200 24008KT P6SM SCT035 SCT080 BKN150=

USA.gov is the U.S. government's official web portal to all federal, state and local government web resources and services.